createdAt,value
2023-05-25T00:01:20.137Z,12.35
2023-05-25T00:03:50.908Z,12.33
2023-05-25T00:06:21.622Z,12.36
2023-05-25T00:08:52.503Z,12.39
2023-05-25T00:11:21.742Z,12.39
2023-05-25T00:13:53.113Z,12.32
2023-05-25T00:16:23.966Z,12.29
2023-05-25T00:18:54.689Z,12.28
2023-05-25T00:21:25.450Z,12.24
2023-05-25T00:23:54.712Z,12.20
2023-05-25T00:26:25.452Z,12.14
2023-05-25T00:28:56.214Z,12.14
2023-05-25T00:31:27.348Z,12.14
2023-05-25T00:33:58.129Z,12.17
2023-05-25T00:36:28.822Z,12.19
2023-05-25T00:38:59.628Z,12.18
2023-05-25T00:41:33.326Z,12.18
2023-05-25T00:44:04.263Z,12.17
2023-05-25T00:46:34.094Z,12.18
2023-05-25T00:49:05.986Z,12.18
2023-05-25T00:51:37.725Z,12.17
2023-05-25T00:54:08.503Z,12.17
2023-05-25T00:56:40.832Z,12.17
2023-05-25T00:59:15.397Z,12.16
2023-05-25T01:01:47.490Z,12.14
2023-05-25T01:04:21.033Z,12.10
2023-05-25T01:06:52.149Z,12.02
2023-05-25T01:09:24.783Z,11.95
2023-05-25T01:11:56.728Z,11.94
2023-05-25T01:14:27.888Z,11.94
2023-05-25T01:16:59.340Z,11.93
2023-05-25T01:19:30.106Z,11.95
2023-05-25T01:22:08.156Z,11.95
2023-05-25T01:24:44.349Z,11.94
2023-05-25T01:27:20.906Z,11.97
2023-05-25T01:29:52.495Z,11.97
2023-05-25T01:32:23.988Z,11.95
2023-05-25T01:34:57.913Z,11.96
2023-05-25T01:37:29.080Z,11.93
2023-05-25T01:39:59.952Z,11.92
2023-05-25T01:42:30.653Z,11.89
2023-05-25T01:45:01.511Z,11.86
2023-05-25T01:47:33.127Z,11.86
2023-05-25T01:50:11.915Z,11.86
2023-05-25T01:52:48.272Z,11.88
2023-05-25T01:55:21.295Z,11.89
2023-05-25T01:57:53.634Z,11.88
2023-05-25T02:00:25.188Z,11.90
2023-05-25T02:02:56.264Z,11.92
2023-05-25T02:05:27.163Z,11.90
2023-05-25T02:07:57.920Z,11.91
2023-05-25T02:10:28.612Z,11.95
2023-05-25T02:12:59.380Z,11.97
2023-05-25T02:15:33.318Z,11.97
2023-05-25T02:18:04.250Z,12.01
2023-05-25T02:20:36.106Z,12.04
2023-05-25T02:23:07.206Z,12.03
2023-05-25T02:25:36.467Z,12.01
2023-05-25T02:28:07.203Z,11.99
2023-05-25T02:30:38.731Z,11.99
2023-05-25T02:33:09.449Z,12.00
2023-05-25T02:35:40.135Z,12.00
2023-05-25T02:38:10.850Z,12.00
2023-05-25T02:40:41.607Z,12.01
2023-05-25T02:43:12.361Z,12.01
2023-05-25T02:45:43.215Z,12.02
2023-05-25T02:48:12.959Z,12.00
2023-05-25T02:50:43.995Z,11.97
2023-05-25T02:53:13.129Z,11.98
2023-05-25T02:55:44.028Z,11.98
2023-05-25T02:58:13.254Z,11.98
2023-05-25T03:00:43.948Z,11.96
2023-05-25T03:06:27.108Z,12.04
2023-05-25T03:08:57.799Z,12.07
2023-05-25T03:11:28.554Z,12.11
2023-05-25T03:13:59.313Z,12.16
2023-05-25T03:16:29.976Z,12.20
2023-05-25T03:19:00.648Z,12.23
2023-05-25T03:21:31.264Z,12.27
2023-05-25T03:24:01.930Z,12.33
2023-05-25T03:26:32.751Z,12.40
2023-05-25T03:29:02.021Z,12.49
2023-05-25T03:31:32.796Z,12.54
2023-05-25T03:34:03.899Z,12.64
2023-05-25T03:36:34.653Z,12.71
2023-05-25T03:39:05.701Z,12.79
2023-05-25T03:41:34.799Z,12.89
2023-05-25T03:44:05.702Z,13.02
2023-05-25T03:46:34.928Z,13.17
2023-05-25T03:49:05.801Z,13.33
2023-05-25T03:51:36.567Z,13.50
2023-05-25T03:54:07.416Z,13.69
2023-05-25T03:56:36.616Z,13.83
2023-05-25T03:59:07.415Z,13.92
2023-05-25T04:01:38.127Z,14.02
2023-05-25T04:04:09.443Z,14.43
2023-05-25T04:06:40.751Z,15.54
2023-05-25T04:09:11.600Z,16.77
2023-05-25T04:11:40.857Z,17.91
2023-05-25T04:14:11.731Z,18.94
2023-05-25T04:16:42.532Z,19.92
2023-05-25T04:19:13.416Z,20.85
2023-05-25T04:21:44.145Z,21.70
2023-05-25T04:24:14.928Z,22.56
2023-05-25T04:26:45.748Z,23.47
2023-05-25T04:29:16.696Z,24.29
2023-05-25T04:31:47.507Z,24.90
2023-05-25T04:34:18.262Z,25.51
2023-05-25T04:36:49.127Z,26.27
2023-05-25T04:39:19.802Z,26.86
2023-05-25T04:41:50.526Z,27.43
2023-05-25T04:44:21.297Z,28.03
2023-05-25T04:46:52.095Z,28.51
2023-05-25T04:49:22.959Z,28.92
2023-05-25T04:51:53.908Z,29.41
2023-05-25T04:54:24.686Z,29.85
2023-05-25T04:56:55.390Z,30.37
2023-05-25T04:59:26.119Z,30.65
2023-05-25T05:01:56.743Z,31.00
2023-05-25T05:04:27.480Z,31.40
2023-05-25T05:06:59.066Z,31.89
2023-05-25T05:09:29.947Z,32.37
2023-05-25T05:12:00.687Z,32.69
2023-05-25T05:14:31.362Z,32.94
2023-05-25T05:17:02.021Z,33.08
2023-05-25T05:19:32.814Z,33.33
2023-05-25T05:22:03.638Z,33.55
2023-05-25T05:24:34.358Z,33.74
2023-05-25T05:27:05.540Z,33.61
2023-05-25T05:29:36.889Z,33.30
2023-05-25T05:32:09.551Z,32.58
2023-05-25T05:34:40.332Z,31.54
2023-05-25T05:37:11.085Z,30.59
2023-05-25T05:39:41.814Z,29.72
2023-05-25T05:42:12.833Z,28.74
2023-05-25T05:44:43.617Z,27.73
2023-05-25T05:47:14.367Z,26.74
2023-05-25T05:49:45.079Z,25.97
2023-05-25T05:52:15.752Z,25.28
2023-05-25T05:54:46.391Z,24.64
2023-05-25T05:57:17.104Z,24.07
2023-05-25T05:59:48.018Z,23.35
2023-05-25T06:02:18.737Z,22.83
2023-05-25T06:04:49.483Z,22.68
2023-05-25T06:07:20.820Z,22.56
2023-05-25T06:09:51.615Z,22.43
2023-05-25T06:12:22.313Z,22.40
2023-05-25T06:14:52.934Z,22.44
2023-05-25T06:17:24.503Z,22.42
2023-05-25T06:19:55.394Z,22.23
2023-05-25T06:22:27.492Z,21.98
2023-05-25T06:24:58.802Z,21.78
2023-05-25T06:27:29.474Z,21.68
2023-05-25T06:30:00.225Z,21.46
2023-05-25T06:32:30.969Z,21.26
2023-05-25T06:35:02.100Z,21.01
2023-05-25T06:37:33.262Z,20.89
2023-05-25T06:40:04.345Z,20.75
2023-05-25T06:42:35.066Z,20.55
2023-05-25T06:45:07.295Z,20.43
2023-05-25T06:47:38.210Z,20.36
2023-05-25T06:50:11.016Z,20.38
2023-05-25T06:52:41.778Z,20.51
2023-05-25T06:55:39.109Z,20.79
2023-05-25T06:58:09.895Z,20.91
2023-05-25T07:00:40.660Z,20.96
2023-05-25T07:03:11.463Z,21.01
2023-05-25T07:05:42.278Z,21.05
2023-05-25T07:08:13.251Z,21.15
2023-05-25T07:10:43.879Z,21.26
2023-05-25T07:13:15.301Z,21.32
2023-05-25T07:15:46.246Z,21.47
2023-05-25T07:18:17.249Z,21.57
2023-05-25T07:20:56.285Z,21.55
2023-05-25T07:23:27.004Z,21.49
2023-05-25T07:25:57.804Z,21.35
2023-05-25T07:28:28.676Z,21.22
2023-05-25T07:30:59.346Z,21.08
2023-05-25T07:33:30.038Z,20.91
2023-05-25T07:36:00.787Z,20.66
2023-05-25T07:38:31.556Z,20.45
2023-05-25T07:41:02.284Z,20.40
2023-05-25T07:43:33.224Z,20.39
2023-05-25T07:46:04.248Z,20.31
2023-05-25T07:48:35.010Z,20.35
2023-05-25T07:51:05.849Z,20.39
2023-05-25T07:53:36.550Z,20.40
2023-05-25T07:56:10.456Z,20.42
2023-05-25T07:58:41.407Z,20.48
2023-05-25T08:01:12.081Z,20.49
2023-05-25T08:06:18.735Z,20.55
2023-05-25T08:08:49.486Z,20.56
2023-05-25T08:11:24.668Z,20.57
2023-05-25T08:13:55.444Z,20.53
2023-05-25T08:16:26.185Z,20.50
2023-05-25T08:18:56.860Z,20.60
2023-05-25T08:21:27.589Z,20.73
2023-05-25T08:23:58.575Z,20.77
2023-05-25T08:26:45.210Z,20.95
2023-05-25T08:29:20.031Z,21.15
2023-05-25T08:31:50.779Z,21.32
2023-05-25T08:34:21.491Z,21.43
2023-05-25T08:36:52.174Z,21.60
2023-05-25T08:39:22.959Z,21.64
2023-05-25T08:41:53.747Z,21.75
2023-05-25T08:44:26.629Z,21.85
2023-05-25T08:46:58.892Z,21.92
2023-05-25T08:49:30.738Z,22.02
2023-05-25T08:52:01.793Z,22.09
2023-05-25T08:54:37.173Z,22.14
2023-05-25T08:57:13.237Z,22.31
2023-05-25T08:59:51.538Z,22.52
2023-05-25T09:02:32.022Z,22.69
2023-05-25T09:05:01.679Z,22.79
2023-05-25T09:07:32.802Z,22.82
2023-05-25T09:10:07.848Z,22.89
2023-05-25T09:12:41.677Z,22.96
2023-05-25T09:15:14.374Z,22.88
2023-05-25T09:17:45.360Z,22.86
2023-05-25T09:20:18.421Z,22.97
2023-05-25T09:22:50.154Z,23.10
2023-05-25T09:25:21.085Z,23.23
2023-05-25T09:27:53.567Z,23.24
2023-05-25T09:30:24.461Z,23.19
2023-05-25T09:32:55.721Z,23.21
2023-05-25T09:35:26.777Z,23.23
2023-05-25T09:37:58.357Z,23.24
2023-05-25T09:40:30.535Z,23.35
2023-05-25T09:43:02.364Z,23.30
2023-05-25T09:45:38.048Z,23.42
2023-05-25T09:48:11.772Z,23.38
2023-05-25T09:50:43.383Z,23.25
2023-05-25T09:53:14.662Z,23.05
2023-05-25T09:55:53.895Z,22.73
2023-05-25T09:58:26.544Z,22.24
2023-05-25T10:00:57.269Z,22.00
2023-05-25T10:03:27.979Z,21.85
2023-05-25T10:05:59.777Z,22.01
2023-05-25T10:08:31.382Z,22.38
2023-05-25T10:11:03.653Z,22.83
2023-05-25T10:13:35.643Z,23.15
2023-05-25T10:16:09.408Z,23.03
2023-05-25T10:18:47.543Z,22.74
2023-05-25T10:21:20.546Z,22.42
2023-05-25T10:23:54.593Z,22.35
2023-05-25T10:26:28.524Z,22.33
2023-05-25T10:29:02.708Z,22.42
2023-05-25T10:31:35.106Z,22.49
2023-05-25T10:34:06.220Z,22.47
2023-05-25T10:36:39.854Z,22.40
2023-05-25T10:39:11.457Z,22.25
2023-05-25T10:41:43.138Z,22.26
2023-05-25T10:44:14.871Z,22.27
2023-05-25T10:46:46.219Z,22.27
2023-05-25T10:49:27.710Z,22.19
2023-05-25T10:52:02.335Z,22.41
2023-05-25T10:54:35.217Z,22.70
2023-05-25T10:57:17.819Z,22.98
2023-05-25T10:59:52.014Z,23.20
2023-05-25T11:02:23.016Z,23.34
2023-05-25T11:05:32.797Z,23.46
2023-05-25T11:08:06.180Z,23.44
2023-05-25T11:10:53.518Z,23.47
2023-05-25T11:13:40.688Z,23.56
2023-05-25T11:16:31.601Z,23.40
2023-05-25T11:19:02.683Z,23.46
2023-05-25T11:21:49.574Z,23.46
2023-05-25T11:24:20.338Z,23.25
2023-05-25T11:26:59.152Z,22.86
2023-05-25T11:29:33.535Z,22.42
2023-05-25T11:32:04.491Z,22.26
2023-05-25T11:34:35.341Z,22.30
2023-05-25T11:37:06.189Z,22.44
2023-05-25T11:39:36.898Z,22.60
2023-05-25T11:42:26.566Z,22.82
2023-05-25T11:46:26.148Z,23.04
2023-05-25T11:48:54.318Z,23.04
2023-05-25T11:51:26.849Z,23.12
2023-05-25T11:53:57.782Z,23.23
2023-05-25T11:56:35.731Z,23.19
2023-05-25T11:59:09.087Z,23.09
2023-05-25T12:01:39.958Z,23.08
2023-05-25T12:04:13.745Z,23.16
2023-05-25T12:06:44.507Z,23.36
2023-05-25T12:09:18.868Z,23.58
2023-05-25T12:11:50.188Z,23.82
2023-05-25T12:14:23.574Z,23.98
2023-05-25T12:17:02.532Z,23.98
2023-05-25T12:19:34.995Z,24.02
2023-05-25T12:22:06.488Z,24.07
2023-05-25T12:24:37.457Z,24.11
2023-05-25T12:27:18.519Z,24.03
2023-05-25T12:29:49.715Z,24.01
2023-05-25T12:32:20.562Z,24.02
2023-05-25T12:34:51.344Z,24.13
2023-05-25T12:37:23.046Z,24.28
2023-05-25T12:39:53.830Z,24.38
2023-05-25T12:42:24.874Z,24.42
2023-05-25T12:44:57.877Z,24.48
2023-05-25T12:47:28.864Z,24.52
2023-05-25T12:50:18.806Z,24.52
2023-05-25T12:52:49.710Z,24.48
2023-05-25T12:55:28.851Z,24.55
2023-05-25T12:58:01.316Z,24.39
2023-05-25T13:00:35.267Z,24.15
2023-05-25T13:03:06.847Z,23.92
2023-05-25T13:05:38.798Z,23.54
2023-05-25T13:08:09.817Z,23.37
2023-05-25T13:10:40.697Z,23.28
2023-05-25T13:13:12.632Z,23.10
2023-05-25T13:15:43.308Z,23.08
2023-05-25T13:18:14.647Z,23.10
2023-05-25T13:20:49.333Z,23.17
2023-05-25T13:23:21.219Z,23.33
2023-05-25T13:25:51.894Z,23.48
2023-05-25T13:28:22.596Z,23.59
2023-05-25T13:30:53.336Z,23.75
2023-05-25T13:33:24.052Z,23.83
2023-05-25T13:35:54.700Z,23.91
2023-05-25T13:38:25.777Z,23.99
2023-05-25T13:40:57.514Z,23.98
2023-05-25T13:43:28.884Z,24.07
2023-05-25T13:45:59.662Z,24.21
2023-05-25T13:48:30.382Z,24.19
2023-05-25T13:51:01.404Z,24.30
2023-05-25T13:53:32.895Z,24.17
2023-05-25T13:56:03.717Z,24.06
2023-05-25T13:58:34.454Z,24.16
2023-05-25T14:01:06.154Z,24.14
2023-05-25T14:03:37.083Z,24.08
2023-05-25T14:06:08.285Z,23.97
2023-05-25T14:08:39.402Z,24.00
2023-05-25T14:11:10.136Z,24.07
2023-05-25T14:13:40.859Z,24.06
2023-05-25T14:16:11.620Z,24.01
2023-05-25T14:18:42.419Z,23.88
2023-05-25T14:21:13.288Z,23.73
2023-05-25T14:23:44.164Z,23.55
2023-05-25T14:26:14.918Z,23.46
2023-05-25T14:28:45.688Z,23.47
2023-05-25T14:31:16.641Z,23.48
2023-05-25T14:33:47.776Z,23.47
2023-05-25T14:36:18.687Z,23.52
2023-05-25T14:38:50.766Z,23.48
2023-05-25T14:41:21.565Z,23.51
2023-05-25T14:43:52.456Z,23.55
2023-05-25T14:46:23.409Z,23.55
2023-05-25T14:48:54.170Z,23.46
2023-05-25T14:51:26.601Z,23.42
2023-05-25T14:53:57.348Z,23.11
2023-05-25T14:56:28.214Z,22.92
2023-05-25T14:58:59.134Z,22.86
2023-05-25T15:01:30.020Z,22.87
2023-05-25T15:04:00.964Z,22.84
2023-05-25T15:06:32.164Z,22.89
2023-05-25T15:09:02.874Z,22.90
2023-05-25T15:11:33.758Z,22.84
2023-05-25T15:14:04.626Z,22.83
2023-05-25T15:16:35.637Z,22.97
2023-05-25T15:19:07.056Z,23.04
2023-05-25T15:21:38.968Z,23.02
2023-05-25T15:24:09.717Z,23.00
2023-05-25T15:26:40.463Z,23.05
2023-05-25T15:29:11.368Z,23.10
2023-05-25T15:31:42.113Z,23.15
2023-05-25T15:34:12.937Z,23.15
2023-05-25T15:36:44.256Z,23.16
2023-05-25T15:39:15.158Z,23.21
2023-05-25T15:41:45.944Z,23.27
2023-05-25T15:44:16.730Z,23.32
2023-05-25T15:46:47.618Z,23.35
2023-05-25T15:49:18.489Z,23.32
2023-05-25T15:51:49.221Z,23.28
2023-05-25T15:54:20.199Z,23.25
2023-05-25T15:56:51.105Z,23.26
2023-05-25T15:59:21.915Z,23.23
2023-05-25T16:01:52.705Z,23.17
2023-05-25T16:04:23.658Z,23.18
2023-05-25T16:06:54.609Z,23.20
2023-05-25T16:09:25.397Z,23.29
2023-05-25T16:11:56.160Z,23.36
2023-05-25T16:14:26.891Z,23.43
2023-05-25T16:16:57.609Z,23.41
2023-05-25T16:19:28.419Z,23.28
2023-05-25T16:21:59.396Z,23.07
2023-05-25T16:24:30.088Z,22.85
2023-05-25T16:27:00.879Z,22.64
2023-05-25T16:29:31.783Z,22.52
2023-05-25T16:32:03.021Z,22.49
2023-05-25T16:34:34.041Z,22.42
2023-05-25T16:37:05.111Z,22.31
2023-05-25T16:39:36.153Z,22.17
2023-05-25T16:42:07.346Z,22.04
2023-05-25T16:44:38.077Z,21.93
2023-05-25T16:47:08.944Z,21.80
2023-05-25T16:49:39.631Z,21.63
2023-05-25T16:52:10.380Z,21.43
2023-05-25T16:54:41.154Z,21.31
2023-05-25T16:57:11.889Z,21.26
2023-05-25T16:59:42.724Z,21.25
2023-05-25T17:02:13.912Z,21.28
2023-05-25T17:04:44.740Z,21.29
2023-05-25T17:07:15.586Z,21.29
2023-05-25T17:09:47.884Z,21.28
2023-05-25T17:12:18.946Z,21.30
2023-05-25T17:14:49.955Z,21.35
2023-05-25T17:17:20.792Z,21.34
2023-05-25T17:19:51.967Z,21.33
2023-05-25T17:22:23.194Z,21.39
2023-05-25T17:24:54.206Z,21.42
2023-05-25T17:27:25.180Z,21.45
2023-05-25T17:29:56.262Z,21.48
2023-05-25T17:32:26.934Z,21.49
2023-05-25T17:34:57.776Z,21.52
2023-05-25T17:37:29.687Z,21.56
2023-05-25T17:40:01.594Z,21.59
2023-05-25T17:42:32.609Z,21.58
2023-05-25T17:45:03.372Z,21.54
2023-05-25T17:47:34.311Z,21.49
2023-05-25T17:50:08.344Z,21.46
2023-05-25T17:52:39.778Z,21.45
2023-05-25T17:55:17.978Z,21.42
2023-05-25T17:57:49.431Z,21.34
2023-05-25T18:00:21.563Z,21.17
2023-05-25T18:02:52.749Z,20.95
2023-05-25T18:05:24.000Z,20.73
2023-05-25T18:07:54.725Z,20.53
2023-05-25T18:10:25.751Z,20.36
2023-05-25T18:12:56.866Z,20.20
2023-05-25T18:15:27.667Z,20.05
2023-05-25T18:17:58.685Z,19.91
2023-05-25T18:20:29.858Z,19.77
2023-05-25T18:23:01.129Z,19.63
2023-05-25T18:25:33.108Z,19.54
2023-05-25T18:28:04.162Z,19.46
2023-05-25T18:30:35.469Z,19.34
2023-05-25T18:33:06.623Z,19.24
2023-05-25T18:35:37.900Z,19.13
2023-05-25T18:38:09.531Z,19.03
2023-05-25T18:40:40.655Z,18.91
2023-05-25T18:43:11.641Z,18.80
2023-05-25T18:45:42.887Z,18.69
2023-05-25T18:48:15.577Z,18.60
2023-05-25T18:50:47.792Z,18.52
2023-05-25T18:53:18.865Z,18.44
2023-05-25T18:55:51.037Z,18.34
2023-05-25T18:58:22.025Z,18.28
2023-05-25T19:00:53.771Z,18.20
2023-05-25T19:03:25.886Z,18.13
2023-05-25T19:05:57.123Z,18.09
2023-05-25T19:08:29.051Z,18.03
2023-05-25T19:11:00.309Z,17.95
2023-05-25T19:13:30.967Z,17.87
2023-05-25T19:16:01.748Z,17.81
2023-05-25T19:18:32.785Z,17.75
2023-05-25T19:21:05.098Z,17.69
2023-05-25T19:23:36.126Z,17.64
2023-05-25T19:26:07.645Z,17.57
2023-05-25T19:28:39.525Z,17.51
2023-05-25T19:31:10.301Z,17.44
2023-05-25T19:33:39.484Z,17.38
2023-05-25T19:36:11.478Z,17.30
2023-05-25T19:38:43.691Z,17.23
2023-05-25T19:41:14.764Z,17.17
2023-05-25T19:43:44.006Z,17.11
2023-05-25T19:46:14.849Z,17.06
2023-05-25T19:48:45.931Z,16.99
2023-05-25T19:51:17.742Z,16.95
2023-05-25T19:53:49.746Z,16.91
2023-05-25T19:56:20.882Z,16.85
2023-05-25T19:58:52.551Z,16.80
2023-05-25T20:01:23.322Z,16.75
2023-05-25T20:03:57.047Z,16.68
2023-05-25T20:06:28.166Z,16.62
2023-05-25T20:08:58.893Z,16.58
2023-05-25T20:11:29.995Z,16.55
2023-05-25T20:14:01.134Z,16.53
2023-05-25T20:16:33.268Z,16.48
2023-05-25T20:19:05.289Z,16.44
2023-05-25T20:21:36.739Z,16.40
2023-05-25T20:24:08.293Z,16.37
2023-05-25T20:26:39.342Z,16.31
2023-05-25T20:29:10.272Z,16.26
2023-05-25T20:31:42.464Z,16.22
2023-05-25T20:34:13.776Z,16.18
2023-05-25T20:36:43.053Z,16.13
2023-05-25T20:39:14.807Z,16.08
2023-05-25T20:41:44.061Z,16.05
2023-05-25T20:44:14.900Z,16.02
2023-05-25T20:46:45.611Z,15.98
2023-05-25T20:49:17.237Z,15.94
2023-05-25T20:51:49.314Z,15.90
2023-05-25T20:54:19.982Z,15.85
2023-05-25T20:56:50.811Z,15.79
2023-05-25T20:59:21.603Z,15.72
2023-05-25T21:01:52.428Z,15.69
2023-05-25T21:04:21.576Z,15.65
2023-05-25T21:06:52.318Z,15.57
2023-05-25T21:09:23.052Z,15.52
2023-05-25T21:11:53.909Z,15.46
2023-05-25T21:14:24.628Z,15.42
2023-05-25T21:16:55.386Z,15.36
2023-05-25T21:19:24.653Z,15.32
2023-05-25T21:21:55.448Z,15.25
2023-05-25T21:24:26.257Z,15.22
2023-05-25T21:26:55.561Z,15.17
2023-05-25T21:29:26.614Z,15.12
2023-05-25T21:31:57.562Z,15.08
2023-05-25T21:34:26.781Z,15.03
2023-05-25T21:36:57.590Z,14.99
2023-05-25T21:39:28.268Z,14.94
2023-05-25T21:41:59.066Z,14.90
2023-05-25T21:44:28.161Z,14.86
2023-05-25T21:46:58.913Z,14.82
2023-05-25T21:49:29.586Z,14.80
2023-05-25T21:52:00.445Z,14.78
2023-05-25T21:54:29.577Z,14.73
2023-05-25T21:57:00.204Z,14.64
2023-05-25T21:59:31.013Z,14.57
2023-05-25T22:02:01.785Z,14.53
2023-05-25T22:04:30.939Z,14.50
2023-05-25T22:07:01.640Z,14.48
2023-05-25T22:09:32.474Z,14.45
2023-05-25T22:12:01.630Z,14.40
2023-05-25T22:14:32.368Z,14.34
2023-05-25T22:17:03.114Z,14.32
2023-05-25T22:19:33.800Z,14.28
2023-05-25T22:22:04.934Z,14.26
2023-05-25T22:24:35.649Z,14.26
2023-05-25T22:27:07.019Z,14.25
2023-05-25T22:29:37.658Z,14.18
2023-05-25T22:32:08.354Z,14.15
2023-05-25T22:34:39.057Z,14.11
2023-05-25T22:37:09.864Z,14.07
2023-05-25T22:39:40.578Z,14.02
2023-05-25T22:42:11.321Z,13.97
2023-05-25T22:44:41.984Z,13.90
2023-05-25T22:47:13.082Z,13.84
2023-05-25T22:49:44.167Z,13.78
2023-05-25T22:52:15.346Z,13.71
2023-05-25T22:54:46.132Z,13.63
2023-05-25T22:57:16.871Z,13.59
2023-05-25T22:59:47.648Z,13.53
2023-05-25T23:02:18.352Z,13.46
2023-05-25T23:04:49.205Z,13.42
2023-05-25T23:07:19.981Z,13.39
2023-05-25T23:09:50.752Z,13.37
2023-05-25T23:12:20.835Z,13.33
2023-05-25T23:14:51.523Z,13.27
2023-05-25T23:17:23.588Z,13.27
2023-05-25T23:19:54.331Z,13.24
2023-05-25T23:22:25.189Z,13.19
2023-05-25T23:24:55.867Z,13.13
2023-05-25T23:27:26.634Z,13.10
2023-05-25T23:29:57.446Z,13.09
2023-05-25T23:32:28.207Z,13.09
2023-05-25T23:34:58.914Z,13.08
2023-05-25T23:37:29.618Z,13.04
2023-05-25T23:40:00.689Z,13.03
2023-05-25T23:42:37.258Z,13.02
2023-05-25T23:45:12.125Z,13.02
2023-05-25T23:47:42.933Z,13.02
2023-05-25T23:50:13.875Z,13.05
2023-05-25T23:52:43.071Z,13.13
2023-05-25T23:55:14.129Z,13.19
2023-05-25T23:57:44.878Z,13.23
